Time;durP1;ratioP1;P1;durP2;ratioP2;P2;SDS_P1;SDS_P2;PMS_P1;PMS_P2;Temp;Humidity;BMP_temperature;BMP_pressure;BME280_temperature;BME280_humidity;BME280_pressure;Samples;Min_cycle;Max_cycle;Signal;HPM_P1;HPM_P2
2022/06/23 01:19:12;;;;;;;0.00;0.00;;;;;;;;;;4910751;28;20047;-58
2022/06/23 01:21:42;;;;;;;0.00;0.00;;;;;;;;;;4911000;29;20046;-58
2022/06/23 01:24:26;;;;;;;0.00;0.00;;;;;;;;;;4908562;29;20062;-59
2022/06/23 01:26:57;;;;;;;0.00;0.00;;;;;;;;;;4907437;29;20087;-59
2022/06/23 01:29:46;;;;;;;0.00;0.00;;;;;;;;;;4912486;29;20458;-60
2022/06/23 01:32:11;;;;;;;0.00;0.00;;;;;;;;;;4911426;29;20064;-58
2022/06/23 01:34:36;;;;;;;0.00;0.00;;;;;;;;;;4908583;29;20423;-59
2022/06/23 01:37:04;;;;;;;0.00;0.00;;;;;;;;;;4905884;29;20056;-59
2022/06/23 01:39:35;;;;;;;0.00;0.00;;;;;;;;;;4907077;29;20316;-60
2022/06/23 01:42:03;;;;;;;0.00;0.00;;;;;;;;;;4911793;29;20020;-59
2022/06/23 01:44:47;;;;;;;0.00;0.00;;;;;;;;;;4909298;29;20416;-60
2022/06/23 01:47:20;;;;;;;0.00;0.00;;;;;;;;;;4902883;29;20040;-59
2022/06/23 01:49:47;;;;;;;0.00;0.00;;;;;;;;;;4913965;29;20107;-58
2022/06/23 01:52:18;;;;;;;0.00;0.00;;;;;;;;;;4910298;29;20111;-60
2022/06/23 01:54:44;;;;;;;0.00;0.00;;;;;;;;;;4905711;29;20051;-59
2022/06/23 01:57:13;;;;;;;0.00;0.00;;;;;;;;;;4907681;29;20021;-60
2022/06/23 01:59:45;;;;;;;0.00;0.00;;;;;;;;;;4907705;29;20024;-59
2022/06/23 02:02:10;;;;;;;0.00;0.00;;;;;;;;;;4906574;29;20110;-60
2022/06/23 02:04:38;;;;;;;0.00;0.00;;;;;;;;;;4908733;29;20473;-60
2022/06/23 02:07:09;;;;;;;3.35;3.25;;;;;;;;;;4910404;29;20352;-60
2022/06/23 02:09:40;;;;;;;1.45;1.20;;;;;;;;;;4905976;29;20485;-59
2022/06/23 02:12:14;;;;;;;2.20;0.85;;;;;;;;;;4911368;29;20020;-59
2022/06/23 02:14:44;;;;;;;0.00;0.00;;;;;;;;;;4903304;29;20025;-60
2022/06/23 02:17:16;;;;;;;0.00;0.00;;;;;;;;;;4909477;29;20024;-60
2022/06/23 02:19:45;;;;;;;0.00;0.00;;;;;;;;;;4906224;29;20064;-59
2022/06/23 02:22:23;;;;;;;0.00;0.00;;;;;;;;;;4907543;29;20688;-59
2022/06/23 02:24:57;;;;;;;0.00;0.00;;;;;;;;;;4905830;29;20462;-59
2022/06/23 02:27:22;;;;;;;1.75;1.65;;;;;;;;;;4905792;29;20491;-59
2022/06/23 02:29:52;;;;;;;0.00;0.00;;;;;;;;;;4907425;29;20104;-59
2022/06/23 02:32:17;;;;;;;;;;;;;;;;;;4905392;29;20111;-59
2022/06/23 02:35:07;;;;;;;0.00;0.00;;;;;;;;;;4912802;29;19990;-59
2022/06/23 02:37:51;;;;;;;0.00;0.00;;;;;;;;;;4904038;29;20021;-60
2022/06/23 02:40:22;;;;;;;0.00;0.00;;;;;;;;;;4889528;29;20031;-59
2022/06/23 02:42:54;;;;;;;0.00;0.00;;;;;;;;;;4901442;29;20374;-58
2022/06/23 02:45:31;;;;;;;0.10;0.10;;;;;;;;;;4909718;29;20467;-59
2022/06/23 02:48:15;;;;;;;0.40;0.40;;;;;;;;;;4908251;29;20066;-59
2022/06/23 02:50:49;;;;;;;6.40;6.07;;;;;;;;;;4908237;29;20036;-60
2022/06/23 02:53:24;;;;;;;0.00;0.00;;;;;;;;;;4912835;29;20083;-60
2022/06/23 02:56:00;;;;;;;0.00;0.00;;;;;;;;;;4908187;29;20662;-59
2022/06/23 02:58:30;;;;;;;0.00;0.00;;;;;;;;;;4905020;29;20048;-60
2022/06/23 03:00:56;;;;;;;0.00;0.00;;;;;;;;;;4890355;29;20067;-60
2022/06/23 03:03:25;;;;;;;0.00;0.00;;;;;;;;;;4911331;29;20470;-59
2022/06/23 03:05:50;;;;;;;0.00;0.00;;;;;;;;;;4906968;29;20048;-59
2022/06/23 03:08:21;;;;;;;1.67;1.67;;;;;;;;;;4905492;29;20067;-59
2022/06/23 03:17:28;;;;;;;0.00;0.00;;;;;;;;;;4923325;28;20071;-61
2022/06/23 03:19:53;;;;;;;0.00;0.00;;;;;;;;;;4927243;29;20086;-62
2022/06/23 03:22:30;;;;;;;0.00;0.00;;;;;;;;;;4931830;29;20718;-61
2022/06/23 03:25:01;;;;;;;0.00;0.00;;;;;;;;;;4930959;29;20478;-62
2022/06/23 03:27:30;;;;;;;0.00;0.00;;;;;;;;;;4929507;29;20032;-61
2022/06/23 03:29:59;;;;;;;0.00;0.00;;;;;;;;;;4929898;29;20098;-61
2022/06/23 03:32:29;;;;;;;0.00;0.00;;;;;;;;;;4931001;29;20076;-61
2022/06/23 03:34:54;;;;;;;0.00;0.00;;;;;;;;;;4929020;29;20874;-61
2022/06/23 03:37:21;;;;;;;0.00;0.00;;;;;;;;;;4931028;29;20112;-61
2022/06/23 03:42:50;;;;;;;0.00;0.00;;;;;;;;;;4929667;29;20163;-60
2022/06/23 03:45:15;;;;;;;;;;;;;;;;;;4928923;29;20543;-62
2022/06/23 03:47:46;;;;;;;0.00;0.00;;;;;;;;;;4929757;29;20360;-60
2022/06/23 03:50:18;;;;;;;0.00;0.00;;;;;;;;;;4931381;29;20095;-61
2022/06/23 03:52:55;;;;;;;0.00;0.00;;;;;;;;;;4929927;29;20029;-61
2022/06/23 03:55:38;;;;;;;0.43;0.43;;;;;;;;;;4929635;29;20070;-61
2022/06/23 03:58:12;;;;;;;0.00;0.00;;;;;;;;;;4929390;29;20373;-61
2022/06/23 04:00:40;;;;;;;0.00;0.00;;;;;;;;;;4930250;29;20051;-62
2022/06/23 04:03:11;;;;;;;0.00;0.00;;;;;;;;;;4930841;29;20039;-61
2022/06/23 04:05:59;;;;;;;0.00;0.00;;;;;;;;;;4930165;29;20106;-61
2022/06/23 04:08:29;;;;;;;0.00;0.00;;;;;;;;;;4929346;29;20027;-62
2022/06/23 04:10:58;;;;;;;0.00;0.00;;;;;;;;;;4931837;29;20024;-62
2022/06/23 04:13:23;;;;;;;0.00;0.00;;;;;;;;;;4935260;29;20031;-61
2022/06/23 04:15:49;;;;;;;1.93;1.20;;;;;;;;;;4933971;29;20044;-61
2022/06/23 04:18:19;;;;;;;4.38;4.18;;;;;;;;;;4931458;29;21089;-61
2022/06/23 04:21:07;;;;;;;0.00;0.00;;;;;;;;;;4934589;29;20036;-61
2022/06/23 04:23:35;;;;;;;0.00;0.00;;;;;;;;;;4932442;29;20392;-61
2022/06/23 04:26:26;;;;;;;0.00;0.00;;;;;;;;;;4933823;29;20726;-62
2022/06/23 04:28:53;;;;;;;0.00;0.00;;;;;;;;;;4929837;29;20031;-62
2022/06/23 04:31:24;;;;;;;1.45;1.45;;;;;;;;;;4932518;29;20020;-62
2022/06/23 04:33:49;;;;;;;0.00;0.00;;;;;;;;;;4933015;29;20062;-61
2022/06/23 04:36:29;;;;;;;0.00;0.00;;;;;;;;;;4933357;29;20465;-61
2022/06/23 04:38:57;;;;;;;0.00;0.00;;;;;;;;;;4931941;29;20073;-60
2022/06/23 04:41:30;;;;;;;0.00;0.00;;;;;;;;;;4933448;29;20461;-60
2022/06/23 04:43:58;;;;;;;0.00;0.00;;;;;;;;;;4933129;29;20080;-60
2022/06/23 04:46:36;;;;;;;0.00;0.00;;;;;;;;;;4916653;29;20034;-61
2022/06/23 04:49:03;;;;;;;0.00;0.00;;;;;;;;;;4933339;29;20083;-61
2022/06/23 04:51:29;;;;;;;0.00;0.00;;;;;;;;;;4933533;29;20417;-61
2022/06/23 04:53:57;;;;;;;0.00;0.00;;;;;;;;;;4932819;29;20024;-61
2022/06/23 04:56:29;;;;;;;0.28;0.28;;;;;;;;;;4932489;29;20492;-61
2022/06/23 04:59:02;;;;;;;0.20;0.20;;;;;;;;;;4932301;29;20027;-61
2022/06/23 05:01:34;;;;;;;0.00;0.00;;;;;;;;;;4931607;29;20032;-61
2022/06/23 05:04:00;;;;;;;0.47;0.47;;;;;;;;;;4932517;29;20055;-61
2022/06/23 05:06:45;;;;;;;0.22;0.22;;;;;;;;;;4935102;29;20024;-61
2022/06/23 05:09:18;;;;;;;0.00;0.00;;;;;;;;;;4933283;29;20035;-61
2022/06/23 05:11:47;;;;;;;0.00;0.00;;;;;;;;;;4933299;29;20028;-61
2022/06/23 05:14:19;;;;;;;0.00;0.00;;;;;;;;;;4931579;29;20036;-62
2022/06/23 05:16:47;;;;;;;0.00;0.00;;;;;;;;;;4932236;29;20512;-62
2022/06/23 05:19:18;;;;;;;0.00;0.00;;;;;;;;;;4932867;29;20040;-61
2022/06/23 05:21:45;;;;;;;0.10;0.10;;;;;;;;;;4925115;29;21110;-61
2022/06/23 05:24:21;;;;;;;0.00;0.00;;;;;;;;;;4927207;29;20035;-62
2022/06/23 05:26:59;;;;;;;0.00;0.00;;;;;;;;;;4928381;29;20564;-61
2022/06/23 05:29:41;;;;;;;0.47;0.22;;;;;;;;;;4928100;29;20526;-62
2022/06/23 05:32:12;;;;;;;0.00;0.00;;;;;;;;;;4923595;29;20098;-60
2022/06/23 05:34:43;;;;;;;0.00;0.00;;;;;;;;;;4926908;29;20043;-61
2022/06/23 05:37:14;;;;;;;0.15;0.15;;;;;;;;;;4929569;29;20051;-61
2022/06/23 05:39:46;;;;;;;1.90;1.80;;;;;;;;;;4926073;29;20122;-60
2022/06/23 05:42:21;;;;;;;8.88;2.20;;;;;;;;;;4924341;29;20114;-61
2022/06/23 05:45:06;;;;;;;0.10;0.10;;;;;;;;;;4930359;29;20032;-61
2022/06/23 05:47:32;;;;;;;3.50;3.40;;;;;;;;;;4911736;29;20043;-61
2022/06/23 05:50:03;;;;;;;0.00;0.00;;;;;;;;;;4929164;29;20028;-61
2022/06/23 05:52:32;;;;;;;1.70;1.60;;;;;;;;;;4929467;29;20023;-62
2022/06/23 05:55:00;;;;;;;;;;;;;;;;;;4926926;29;20488;-62
2022/06/23 05:57:35;;;;;;;0.00;0.00;;;;;;;;;;4926261;29;19911;-62
2022/06/23 06:00:07;;;;;;;0.20;0.20;;;;;;;;;;4930729;29;20023;-62
2022/06/23 06:02:38;;;;;;;0.00;0.00;;;;;;;;;;4931829;29;20023;-61
2022/06/23 06:05:04;;;;;;;0.00;0.00;;;;;;;;;;4929269;29;20047;-61
2022/06/23 06:07:34;;;;;;;0.20;0.20;;;;;;;;;;4932384;29;20100;-61
2022/06/23 06:10:01;;;;;;;0.00;0.00;;;;;;;;;;4931927;29;20470;-61
2022/06/23 06:12:33;;;;;;;0.68;0.68;;;;;;;;;;4931261;29;20464;-61
2022/06/23 06:15:21;;;;;;;0.00;0.00;;;;;;;;;;4928612;29;20073;-62
2022/06/23 06:17:49;;;;;;;0.00;0.00;;;;;;;;;;4923996;29;20031;-61
2022/06/23 06:20:14;;;;;;;0.00;0.00;;;;;;;;;;4930866;29;20058;-59
2022/06/23 06:22:40;;;;;;;1.55;1.55;;;;;;;;;;4929851;29;20560;-61
2022/06/23 06:25:10;;;;;;;0.40;0.40;;;;;;;;;;4932250;29;20028;-61
2022/06/23 06:27:36;;;;;;;0.00;0.00;;;;;;;;;;4932079;29;20272;-62
2022/06/23 06:30:01;;;;;;;0.00;0.00;;;;;;;;;;4931780;29;20031;-61
2022/06/23 06:32:34;;;;;;;4.03;3.83;;;;;;;;;;4930647;29;20042;-61
2022/06/23 06:34:59;;;;;;;0.00;0.00;;;;;;;;;;4931835;29;20890;-61
2022/06/23 06:37:27;;;;;;;0.00;0.00;;;;;;;;;;4931820;29;20114;-62
2022/06/23 06:39:55;;;;;;;0.00;0.00;;;;;;;;;;4929154;29;20271;-62
2022/06/23 06:42:23;;;;;;;1.17;1.17;;;;;;;;;;4930186;29;20090;-62
2022/06/23 06:44:49;;;;;;;1.77;0.88;;;;;;;;;;4931214;29;20466;-62
2022/06/23 06:47:20;;;;;;;0.00;0.00;;;;;;;;;;4929837;29;20047;-62
2022/06/23 06:49:49;;;;;;;0.00;0.00;;;;;;;;;;4911209;29;20035;-60
2022/06/23 06:52:14;;;;;;;0.00;0.00;;;;;;;;;;4930133;29;20036;-60
2022/06/23 06:54:41;;;;;;;0.00;0.00;;;;;;;;;;4929608;29;20034;-62
2022/06/23 06:57:13;;;;;;;0.20;0.20;;;;;;;;;;4930607;29;20039;-61
2022/06/23 06:59:47;;;;;;;0.15;0.15;;;;;;;;;;4929453;29;20033;-62
2022/06/23 07:02:19;;;;;;;20.92;0.57;;;;;;;;;;4930579;29;20051;-61
2022/06/23 07:05:04;;;;;;;0.00;0.00;;;;;;;;;;4928971;29;20437;-62
2022/06/23 07:07:33;;;;;;;0.00;0.00;;;;;;;;;;4931245;29;20026;-62
2022/06/23 07:10:02;;;;;;;0.75;0.75;;;;;;;;;;4929291;29;20027;-62
2022/06/23 07:12:27;;;;;;;;;;;;;;;;;;4930891;29;20024;-61
2022/06/23 07:15:04;;;;;;;0.90;0.90;;;;;;;;;;4929967;29;19922;-62
2022/06/23 07:17:40;;;;;;;0.00;0.00;;;;;;;;;;4929772;29;20028;-61
2022/06/23 07:20:11;;;;;;;0.08;0.08;;;;;;;;;;4931000;29;20058;-60
2022/06/23 07:22:41;;;;;;;0.00;0.00;;;;;;;;;;4930900;29;20047;-62
2022/06/23 07:25:11;;;;;;;0.55;0.55;;;;;;;;;;4931048;29;20031;-61
2022/06/23 07:27:45;;;;;;;0.65;0.65;;;;;;;;;;4930862;29;20359;-61
2022/06/23 07:30:14;;;;;;;0.00;0.00;;;;;;;;;;4931065;29;20032;-61
2022/06/23 07:32:43;;;;;;;0.03;0.03;;;;;;;;;;4929707;29;20035;-61
2022/06/23 07:35:08;;;;;;;0.38;0.28;;;;;;;;;;4913923;29;20374;-61
2022/06/23 07:37:56;;;;;;;0.33;0.33;;;;;;;;;;4931225;29;20034;-61
2022/06/23 07:40:22;;;;;;;0.93;0.93;;;;;;;;;;4923209;29;20039;-62
2022/06/23 07:42:47;;;;;;;0.00;0.00;;;;;;;;;;4929147;29;20106;-61
2022/06/23 07:45:16;;;;;;;0.40;0.40;;;;;;;;;;4931357;29;20106;-61
2022/06/23 07:47:41;;;;;;;;;;;;;;;;;;4934653;29;20481;-62
2022/06/23 07:50:06;;;;;;;3.13;2.00;;;;;;;;;;4935365;29;19914;-61
2022/06/23 07:52:32;;;;;;;0.00;0.00;;;;;;;;;;4934702;29;20019;-61
2022/06/23 07:54:57;;;;;;;0.00;0.00;;;;;;;;;;4933910;29;20016;-62
2022/06/23 07:57:25;;;;;;;0.20;0.20;;;;;;;;;;4933041;29;20458;-61
2022/06/23 07:59:57;;;;;;;0.25;0.25;;;;;;;;;;4934618;29;20111;-62
2022/06/23 08:02:26;;;;;;;0.00;0.00;;;;;;;;;;4934125;29;20400;-62
2022/06/23 08:04:51;;;;;;;;;;;;;;;;;;4931541;29;20028;-62
2022/06/23 08:07:16;;;;;;;1.98;1.77;;;;;;;;;;4933634;29;20005;-62
2022/06/23 08:09:44;;;;;;;0.00;0.00;;;;;;;;;;4934523;29;20107;-61
2022/06/23 08:17:55;;;;;;;0.10;0.10;;;;;;;;;;4933247;29;20052;-62
2022/06/23 08:20:21;;;;;;;0.00;0.00;;;;;;;;;;4933560;29;20032;-62
2022/06/23 08:22:48;;;;;;;0.00;0.00;;;;;;;;;;4934175;29;20055;-61
2022/06/23 08:25:15;;;;;;;0.00;0.00;;;;;;;;;;4934114;29;20039;-62
2022/06/23 08:27:42;;;;;;;0.32;0.32;;;;;;;;;;4934618;29;20035;-62
2022/06/23 08:30:09;;;;;;;0.00;0.00;;;;;;;;;;4933062;29;20087;-62
2022/06/23 08:32:37;;;;;;;6.38;3.40;;;;;;;;;;4933741;29;20111;-63
2022/06/23 08:35:05;;;;;;;0.00;0.00;;;;;;;;;;4931369;29;20431;-61
2022/06/23 08:37:30;;;;;;;;;;;;;;;;;;4933587;29;20138;-61
2022/06/23 08:40:00;;;;;;;0.80;0.63;;;;;;;;;;4933777;29;19966;-62
2022/06/23 08:42:25;;;;;;;4.90;0.85;;;;;;;;;;4933748;29;20038;-62
2022/06/23 08:44:54;;;;;;;0.00;0.00;;;;;;;;;;4932511;29;20015;-63
2022/06/23 08:47:48;;;;;;;0.00;0.00;;;;;;;;;;4933227;29;20028;-62
2022/06/23 08:50:17;;;;;;;5.05;1.55;;;;;;;;;;4916305;29;20113;-62
2022/06/23 08:53:03;;;;;;;2.83;0.80;;;;;;;;;;4933654;29;20020;-62
2022/06/23 08:55:44;;;;;;;0.00;0.00;;;;;;;;;;4926196;29;20082;-63
2022/06/23 08:58:21;;;;;;;0.52;0.52;;;;;;;;;;4932318;29;20024;-63
2022/06/23 09:00:53;;;;;;;0.00;0.00;;;;;;;;;;4931959;29;20028;-62
2022/06/23 09:03:28;;;;;;;0.00;0.00;;;;;;;;;;4932856;29;20059;-62
2022/06/23 09:06:07;;;;;;;0.00;0.00;;;;;;;;;;4931884;29;20791;-62
2022/06/23 09:08:35;;;;;;;0.00;0.00;;;;;;;;;;4918844;29;20016;-62
2022/06/23 09:11:15;;;;;;;0.95;0.80;;;;;;;;;;4933648;29;20020;-61
2022/06/23 09:13:50;;;;;;;0.00;0.00;;;;;;;;;;4931904;29;20028;-62
2022/06/23 09:16:27;;;;;;;0.77;0.63;;;;;;;;;;4931090;29;20051;-61
2022/06/23 09:19:07;;;;;;;0.00;0.00;;;;;;;;;;4927750;29;20054;-61
2022/06/23 09:21:51;;;;;;;0.00;0.00;;;;;;;;;;4927969;29;20082;-61
2022/06/23 09:24:22;;;;;;;0.47;0.47;;;;;;;;;;4929720;29;20059;-61
2022/06/23 09:27:06;;;;;;;1.98;1.88;;;;;;;;;;4928824;29;20417;-61
2022/06/23 09:29:38;;;;;;;0.00;0.00;;;;;;;;;;4928392;29;20782;-61
2022/06/23 09:32:27;;;;;;;0.05;0.05;;;;;;;;;;4925652;29;20023;-61
2022/06/23 09:35:11;;;;;;;1.30;1.30;;;;;;;;;;4912390;29;20760;-60
2022/06/23 09:37:53;;;;;;;0.28;0.28;;;;;;;;;;4929178;29;20046;-61
2022/06/23 09:40:18;;;;;;;0.00;0.00;;;;;;;;;;4929335;29;20545;-61
2022/06/23 09:43:19;;;;;;;2.03;1.90;;;;;;;;;;4927462;29;20099;-61
2022/06/23 09:45:48;;;;;;;0.08;0.08;;;;;;;;;;4904001;29;20276;-60
2022/06/23 09:48:30;;;;;;;0.63;0.63;;;;;;;;;;4922521;29;20046;-61
2022/06/23 09:51:14;;;;;;;0.65;0.65;;;;;;;;;;4927752;29;20032;-60
2022/06/23 09:53:39;;;;;;;0.00;0.00;;;;;;;;;;4927560;29;20020;-60
2022/06/23 09:56:21;;;;;;;0.00;0.00;;;;;;;;;;4928177;29;20034;-60
2022/06/23 09:59:05;;;;;;;0.00;0.00;;;;;;;;;;4928026;29;21377;-61
2022/06/23 10:01:33;;;;;;;0.00;0.00;;;;;;;;;;4928395;29;20036;-61
2022/06/23 10:03:59;;;;;;;0.10;0.10;;;;;;;;;;4927762;29;20565;-61
2022/06/23 10:06:45;;;;;;;0.23;0.20;;;;;;;;;;4927863;29;20039;-61
2022/06/23 10:09:29;;;;;;;0.20;0.20;;;;;;;;;;4925478;29;20024;-61
2022/06/23 10:11:57;;;;;;;0.10;0.10;;;;;;;;;;4926609;29;20544;-61
2022/06/23 10:14:31;;;;;;;0.17;0.17;;;;;;;;;;4926126;29;20028;-62
2022/06/23 10:16:59;;;;;;;0.00;0.00;;;;;;;;;;4926940;29;20050;-62
2022/06/23 10:19:33;;;;;;;0.52;0.52;;;;;;;;;;4908752;29;20162;-61
2022/06/23 10:22:01;;;;;;;0.20;0.15;;;;;;;;;;4927655;29;20094;-61
2022/06/23 10:24:29;;;;;;;0.67;0.67;;;;;;;;;;4927288;29;20129;-61
2022/06/23 10:27:10;;;;;;;0.85;0.80;;;;;;;;;;4922233;29;20696;-61
2022/06/23 10:29:45;;;;;;;0.73;0.73;;;;;;;;;;4928152;29;20540;-61
2022/06/23 10:32:13;;;;;;;1.25;0.80;;;;;;;;;;4925817;29;20059;-62
2022/06/23 10:34:54;;;;;;;0.65;0.65;;;;;;;;;;4925828;29;20020;-62
2022/06/23 10:37:22;;;;;;;0.75;0.75;;;;;;;;;;4927680;29;20047;-62
2022/06/23 10:40:11;;;;;;;0.00;0.00;;;;;;;;;;4927435;29;20113;-60
2022/06/23 10:42:52;;;;;;;0.10;0.10;;;;;;;;;;4927021;29;20271;-61
2022/06/23 10:45:21;;;;;;;0.10;0.10;;;;;;;;;;4926851;29;20038;-61
2022/06/23 10:47:46;;;;;;;0.22;0.22;;;;;;;;;;4926038;29;20444;-62
2022/06/23 10:50:12;;;;;;;0.83;0.83;;;;;;;;;;4927773;29;20024;-62
2022/06/23 10:52:40;;;;;;;0.00;0.00;;;;;;;;;;4927562;29;20295;-62
2022/06/23 10:55:22;;;;;;;3.60;1.30;;;;;;;;;;4927517;29;20259;-60
2022/06/23 10:58:07;;;;;;;1.27;1.27;;;;;;;;;;4926165;29;20062;-62
2022/06/23 11:00:32;;;;;;;0.00;0.00;;;;;;;;;;4926573;29;20075;-61
2022/06/23 11:03:26;;;;;;;0.00;0.00;;;;;;;;;;4926748;29;20098;-62
2022/06/23 11:06:07;;;;;;;1.35;1.27;;;;;;;;;;4918312;29;20278;-63
2022/06/23 11:08:35;;;;;;;0.20;0.20;;;;;;;;;;4927417;29;20036;-62
2022/06/23 11:11:15;;;;;;;5.50;1.03;;;;;;;;;;4926940;29;20083;-62
2022/06/23 11:13:40;;;;;;;3.63;1.45;;;;;;;;;;4926604;29;20042;-61
2022/06/23 11:16:26;;;;;;;0.00;0.00;;;;;;;;;;4926717;29;20031;-61
2022/06/23 11:18:54;;;;;;;6.18;3.47;;;;;;;;;;4924891;29;20287;-61
2022/06/23 11:21:31;;;;;;;1.25;0.63;;;;;;;;;;4928005;29;20024;-61
2022/06/23 11:23:59;;;;;;;0.10;0.10;;;;;;;;;;4925776;29;20473;-62
2022/06/23 11:26:39;;;;;;;0.53;0.37;;;;;;;;;;4925051;29;20023;-61
2022/06/23 11:29:10;;;;;;;0.25;0.25;;;;;;;;;;4925974;29;20058;-62
2022/06/23 11:31:36;;;;;;;0.47;0.47;;;;;;;;;;4927399;29;20027;-61
2022/06/23 11:34:04;;;;;;;0.00;0.00;;;;;;;;;;4926435;29;20070;-61
2022/06/23 11:36:48;;;;;;;0.85;0.80;;;;;;;;;;4926309;29;20039;-62
2022/06/23 11:39:16;;;;;;;0.00;0.00;;;;;;;;;;4925559;29;20043;-62
2022/06/23 11:41:50;;;;;;;0.30;0.30;;;;;;;;;;4926770;29;20528;-61
2022/06/23 11:44:18;;;;;;;0.10;0.10;;;;;;;;;;4926394;29;20306;-62
2022/06/23 11:46:52;;;;;;;1.42;1.40;;;;;;;;;;4927374;29;20763;-62
2022/06/23 11:49:41;;;;;;;0.63;0.63;;;;;;;;;;4927106;29;20066;-61
2022/06/23 11:52:42;;;;;;;2.33;2.03;;;;;;;;;;4918534;29;20039;-62
2022/06/23 11:55:26;;;;;;;0.20;0.20;;;;;;;;;;4886291;29;20029;-62
2022/06/23 11:57:56;;;;;;;0.30;0.30;;;;;;;;;;4922177;29;20066;-61
2022/06/23 12:00:27;;;;;;;0.00;0.00;;;;;;;;;;4926212;29;20385;-62
2022/06/23 12:02:55;;;;;;;0.25;0.25;;;;;;;;;;4925507;29;20028;-61
2022/06/23 12:05:30;;;;;;;0.45;0.45;;;;;;;;;;4908893;29;20035;-61
2022/06/23 12:07:59;;;;;;;1.08;0.98;;;;;;;;;;4926505;29;20716;-62
2022/06/23 12:10:26;;;;;;;0.00;0.00;;;;;;;;;;4927124;29;20103;-62
2022/06/23 12:12:52;;;;;;;0.00;0.00;;;;;;;;;;4925231;29;20024;-62
2022/06/23 12:15:22;;;;;;;0.73;0.28;;;;;;;;;;4926129;29;20098;-61
2022/06/23 12:17:49;;;;;;;0.45;0.45;;;;;;;;;;4926515;29;20051;-61
2022/06/23 12:20:14;;;;;;;0.08;0.08;;;;;;;;;;4927012;29;20111;-61
2022/06/23 12:22:58;;;;;;;0.00;0.00;;;;;;;;;;4926694;29;20042;-61
2022/06/23 12:25:28;;;;;;;0.08;0.08;;;;;;;;;;4923833;29;21281;-61
2022/06/23 12:28:10;;;;;;;0.15;0.15;;;;;;;;;;4925692;29;20076;-61
2022/06/23 12:30:42;;;;;;;0.47;0.47;;;;;;;;;;4927827;29;20131;-61
2022/06/23 12:33:24;;;;;;;5.38;0.65;;;;;;;;;;4928742;29;20657;-61
2022/06/23 12:35:57;;;;;;;0.17;0.17;;;;;;;;;;4929597;29;20032;-61
2022/06/23 12:38:40;;;;;;;0.32;0.32;;;;;;;;;;4929175;29;20150;-61
2022/06/23 12:41:12;;;;;;;0.15;0.15;;;;;;;;;;4929978;29;20028;-62
2022/06/23 12:43:40;;;;;;;0.05;0.05;;;;;;;;;;4926460;29;20078;-62
2022/06/23 12:46:13;;;;;;;2.17;2.03;;;;;;;;;;4928018;29;20035;-62
2022/06/23 12:48:57;;;;;;;0.10;0.10;;;;;;;;;;4929508;29;20067;-62
2022/06/23 12:51:48;;;;;;;0.00;0.00;;;;;;;;;;4927630;29;20043;-62
2022/06/23 12:54:42;;;;;;;0.32;0.28;;;;;;;;;;4926206;29;20091;-61
2022/06/23 12:57:11;;;;;;;0.13;0.13;;;;;;;;;;4928423;29;20032;-61
2022/06/23 12:59:49;;;;;;;0.60;0.60;;;;;;;;;;4929480;29;20175;-61
2022/06/23 13:02:19;;;;;;;3.50;2.05;;;;;;;;;;4928423;29;20087;-61
2022/06/23 13:04:47;;;;;;;1.35;1.25;;;;;;;;;;4928232;29;20493;-61
2022/06/23 13:07:31;;;;;;;0.00;0.00;;;;;;;;;;4928322;29;20028;-62
2022/06/23 13:10:12;;;;;;;0.90;0.90;;;;;;;;;;4929367;29;20393;-61
2022/06/23 13:12:56;;;;;;;0.70;0.70;;;;;;;;;;4928552;29;20035;-62
2022/06/23 13:15:27;;;;;;;3.50;3.30;;;;;;;;;;4927940;29;20031;-61
2022/06/23 13:17:55;;;;;;;0.57;0.57;;;;;;;;;;4928816;29;20027;-61
2022/06/23 13:20:25;;;;;;;0.03;0.03;;;;;;;;;;4929988;29;20068;-61
2022/06/23 13:23:03;;;;;;;0.73;0.60;;;;;;;;;;4928045;29;21299;-61
2022/06/23 13:25:34;;;;;;;0.00;0.00;;;;;;;;;;4926750;29;20059;-62
2022/06/23 13:28:01;;;;;;;0.77;0.77;;;;;;;;;;4928598;29;20101;-62
2022/06/23 13:30:28;;;;;;;0.00;0.00;;;;;;;;;;4929143;29;20055;-62
2022/06/23 13:33:16;;;;;;;0.00;0.00;;;;;;;;;;4928252;29;20110;-62
2022/06/23 13:35:53;;;;;;;0.70;0.70;;;;;;;;;;4924849;29;20036;-61
2022/06/23 13:38:25;;;;;;;0.50;0.50;;;;;;;;;;4926541;29;20024;-61
2022/06/23 13:40:55;;;;;;;0.70;0.70;;;;;;;;;;4926012;29;20027;-61
2022/06/23 13:43:38;;;;;;;0.00;0.00;;;;;;;;;;4928991;29;20050;-61
2022/06/23 13:46:08;;;;;;;0.35;0.35;;;;;;;;;;4928561;29;20015;-61
2022/06/23 13:48:39;;;;;;;0.00;0.00;;;;;;;;;;4928399;29;20036;-62
2022/06/23 13:51:19;;;;;;;3.17;1.20;;;;;;;;;;4928671;29;20070;-61
2022/06/23 13:53:59;;;;;;;0.93;0.90;;;;;;;;;;4927431;29;20062;-61
2022/06/23 13:56:44;;;;;;;1.50;1.17;;;;;;;;;;4928920;29;20036;-62
2022/06/23 13:59:18;;;;;;;0.00;0.00;;;;;;;;;;4928539;29;20070;-62
2022/06/23 14:01:48;;;;;;;1.67;1.58;;;;;;;;;;4927574;29;20102;-61
2022/06/23 14:04:16;;;;;;;0.20;0.20;;;;;;;;;;4927956;29;20128;-61
2022/06/23 14:06:44;;;;;;;0.00;0.00;;;;;;;;;;4929115;29;20024;-61
2022/06/23 14:09:13;;;;;;;0.00;0.00;;;;;;;;;;4927425;29;20474;-62
2022/06/23 14:11:57;;;;;;;0.00;0.00;;;;;;;;;;4929262;29;20067;-61
2022/06/23 14:14:27;;;;;;;0.00;0.00;;;;;;;;;;4928378;29;20170;-62
2022/06/23 14:16:55;;;;;;;0.28;0.28;;;;;;;;;;4928360;29;20686;-62
2022/06/23 14:19:23;;;;;;;0.00;0.00;;;;;;;;;;4928422;29;20052;-62
2022/06/23 14:21:57;;;;;;;0.00;0.00;;;;;;;;;;4911950;29;20147;-62
2022/06/23 14:24:34;;;;;;;0.22;0.17;;;;;;;;;;4929864;29;20377;-61
2022/06/23 14:27:03;;;;;;;0.25;0.25;;;;;;;;;;4927902;29;20023;-62
2022/06/23 14:29:34;;;;;;;1.35;0.98;;;;;;;;;;4927697;29;20488;-62
2022/06/23 14:32:03;;;;;;;1.15;1.15;;;;;;;;;;4926728;29;20081;-62
2022/06/23 14:34:38;;;;;;;2.65;0.55;;;;;;;;;;4910296;29;20054;-61
2022/06/23 14:37:22;;;;;;;0.00;0.00;;;;;;;;;;4927607;29;20033;-61
2022/06/23 14:39:47;;;;;;;0.35;0.35;;;;;;;;;;4925659;29;20424;-61
2022/06/23 14:42:12;;;;;;;2.23;1.03;;;;;;;;;;4926109;29;20032;-61
2022/06/23 14:44:52;;;;;;;0.82;0.82;;;;;;;;;;4926608;29;20291;-61
2022/06/23 14:47:21;;;;;;;2.53;2.33;;;;;;;;;;4928247;29;20024;-61
2022/06/23 14:50:04;;;;;;;0.28;0.28;;;;;;;;;;4928126;29;20047;-61
2022/06/23 14:52:35;;;;;;;0.52;0.52;;;;;;;;;;4933022;29;20114;-62
2022/06/23 14:55:12;;;;;;;0.30;0.30;;;;;;;;;;4912318;29;20032;-62
2022/06/23 14:57:44;;;;;;;0.00;0.00;;;;;;;;;;4930238;29;20103;-62
2022/06/23 15:00:12;;;;;;;0.00;0.00;;;;;;;;;;4931255;29;20312;-61
2022/06/23 15:02:47;;;;;;;0.13;0.13;;;;;;;;;;4932271;29;20034;-62
2022/06/23 15:05:31;;;;;;;0.20;0.20;;;;;;;;;;4911787;29;20299;-61
2022/06/23 15:08:12;;;;;;;3.85;3.70;;;;;;;;;;4913722;29;20019;-61
2022/06/23 15:10:37;;;;;;;0.65;0.65;;;;;;;;;;4930114;29;20024;-62
2022/06/23 15:13:15;;;;;;;0.00;0.00;;;;;;;;;;4930581;29;20024;-61
2022/06/23 15:15:51;;;;;;;0.00;0.00;;;;;;;;;;4930822;29;20692;-61
2022/06/23 15:18:22;;;;;;;1.17;1.17;;;;;;;;;;4929601;29;20078;-62
2022/06/23 15:20:59;;;;;;;0.00;0.00;;;;;;;;;;4929575;29;20044;-62
2022/06/23 15:23:30;;;;;;;0.00;0.00;;;;;;;;;;4931274;29;20229;-62
2022/06/23 15:26:17;;;;;;;1.48;1.38;;;;;;;;;;4930879;29;20028;-61
2022/06/23 15:28:47;;;;;;;0.10;0.10;;;;;;;;;;4930384;29;20110;-61
2022/06/23 15:31:18;;;;;;;0.10;0.10;;;;;;;;;;4930788;29;20537;-61
2022/06/23 15:33:43;;;;;;;0.10;0.10;;;;;;;;;;4913092;29;20038;-61
2022/06/23 15:36:27;;;;;;;0.00;0.00;;;;;;;;;;4929619;29;20688;-61
2022/06/23 15:38:52;;;;;;;0.00;0.00;;;;;;;;;;4931162;29;20035;-61
2022/06/23 15:41:18;;;;;;;0.00;0.00;;;;;;;;;;4931237;29;20042;-61
2022/06/23 15:44:01;;;;;;;0.00;0.00;;;;;;;;;;4929239;29;20051;-61
2022/06/23 15:46:36;;;;;;;0.00;0.00;;;;;;;;;;4929711;29;20319;-61
2022/06/23 15:49:01;;;;;;;0.88;0.88;;;;;;;;;;4928824;29;20524;-62
2022/06/23 15:51:32;;;;;;;0.00;0.00;;;;;;;;;;4931440;29;20035;-62
2022/06/23 15:54:01;;;;;;;0.00;0.00;;;;;;;;;;4929645;29;20271;-62
2022/06/23 15:56:42;;;;;;;0.00;0.00;;;;;;;;;;4929824;29;20038;-62
2022/06/23 15:59:11;;;;;;;3.20;2.05;;;;;;;;;;4927629;29;20064;-61
2022/06/23 16:01:36;;;;;;;0.00;0.00;;;;;;;;;;4931117;29;20031;-61
2022/06/23 16:04:11;;;;;;;5.20;0.87;;;;;;;;;;4929212;29;20036;-61
2022/06/23 16:06:37;;;;;;;2.25;2.17;;;;;;;;;;4933884;29;20484;-62
2022/06/23 16:09:08;;;;;;;0.00;0.00;;;;;;;;;;4934442;29;20378;-61
2022/06/23 16:11:49;;;;;;;0.10;0.10;;;;;;;;;;4934621;29;20031;-61
2022/06/23 16:14:23;;;;;;;0.00;0.00;;;;;;;;;;4933015;29;20126;-61
2022/06/23 16:16:58;;;;;;;1.15;1.05;;;;;;;;;;4933796;29;20520;-61
2022/06/23 16:19:28;;;;;;;0.60;0.55;;;;;;;;;;4929195;29;20059;-61
2022/06/23 16:22:07;;;;;;;0.15;0.15;;;;;;;;;;4933566;29;20389;-61
2022/06/23 16:24:41;;;;;;;0.00;0.00;;;;;;;;;;4933856;29;20050;-62
2022/06/23 16:27:14;;;;;;;0.00;0.00;;;;;;;;;;4933666;29;20034;-61
2022/06/23 16:29:42;;;;;;;0.10;0.10;;;;;;;;;;4934315;29;20161;-62
2022/06/23 16:32:10;;;;;;;0.00;0.00;;;;;;;;;;4933401;29;20035;-61
2022/06/23 16:34:35;;;;;;;1.75;1.65;;;;;;;;;;4931069;29;20485;-60
2022/06/23 16:37:15;;;;;;;0.00;0.00;;;;;;;;;;4929286;29;20031;-60
2022/06/23 16:39:59;;;;;;;0.00;0.00;;;;;;;;;;4928728;29;20272;-60
2022/06/23 16:42:33;;;;;;;0.00;0.00;;;;;;;;;;4910630;29;20029;-60
2022/06/23 16:45:13;;;;;;;0.00;0.00;;;;;;;;;;4926925;29;20088;-60
2022/06/23 16:47:44;;;;;;;0.38;0.38;;;;;;;;;;4929057;29;20016;-60
2022/06/23 16:50:24;;;;;;;0.00;0.00;;;;;;;;;;4927625;29;20023;-60
2022/06/23 16:52:55;;;;;;;0.30;0.30;;;;;;;;;;4929481;29;20034;-60